Time;durP1;ratioP1;P1;durP2;ratioP2;P2;SDS_P1;SDS_P2;PMS_P1;PMS_P2;Temp;Humidity;BMP_temperature;BMP_pressure;BME280_temperature;BME280_humidity;BME280_pressure;Samples;Min_cycle;Max_cycle;Signal;HPM_P1;HPM_P2
2021/12/24 00:00:34;;;;;;;55.13;29.92;;;;;;;8.08;100.00;100216.16;5055783;28;20056;-49
2021/12/24 00:03:00;;;;;;;55.60;28.90;;;;;;;8.14;100.00;100225.56;5055845;28;20115;-48
2021/12/24 00:05:26;;;;;;;41.25;25.38;;;;;;;8.40;100.00;100264.94;5073439;28;20119;-51
2021/12/24 00:07:51;;;;;;;49.75;27.83;;;;;;;8.42;100.00;100252.63;5073661;28;20029;-47
2021/12/24 00:10:17;;;;;;;42.58;25.90;;;;;;;8.59;100.00;100259.94;5038934;28;20032;-46
2021/12/24 00:12:54;;;;;;;41.45;25.50;;;;;;;8.33;100.00;100221.47;5073154;28;20033;-49
2021/12/24 00:17:44;;;;;;;45.15;28.15;;;;;;;8.52;100.00;100240.09;5073201;28;20086;-48
2021/12/24 00:20:50;;;;;;;50.65;30.00;;;;;;;8.74;100.00;100270.78;5073440;28;20127;-50
2021/12/24 00:36:44;;;;;;;67.00;30.80;;;;;;;9.02;100.00;100258.41;5073051;28;20050;-50
2021/12/24 00:39:10;;;;;;;57.08;28.75;;;;;;;8.96;100.00;100245.50;5072978;28;20036;-48
2021/12/24 00:41:35;;;;;;;63.63;30.42;;;;;;;8.84;100.00;100224.94;5072918;28;20025;-46
2021/12/24 00:44:00;;;;;;;66.32;29.27;;;;;;;9.12;100.00;100263.34;5072631;28;20033;-49
2021/12/24 00:46:26;;;;;;;67.03;29.48;;;;;;;9.10;100.00;100265.19;5072687;28;20043;-52
2021/12/24 00:48:53;;;;;;;59.10;26.50;;;;;;;8.79;100.00;100215.50;5072666;28;20039;-52
2021/12/24 00:51:32;;;;;;;72.60;29.00;;;;;;;9.01;100.00;100250.63;5072286;28;20151;-49
2021/12/24 00:56:41;;;;;;;53.03;25.17;;;;;;;9.06;100.00;100264.44;5072493;28;20098;-52
2021/12/24 00:59:07;;;;;;;54.50;27.73;;;;;;;8.79;100.00;100219.00;5054762;28;20041;-52
2021/12/24 01:01:32;;;;;;;54.35;26.40;;;;;;;8.91;100.00;100241.31;5072291;28;20044;-49
2021/12/24 01:03:57;;;;;;;49.15;25.35;;;;;;;9.07;100.00;100257.41;5072222;28;20047;-48
2021/12/24 01:06:23;;;;;;;64.65;27.40;;;;;;;8.78;100.00;100213.81;5072499;28;20056;-51
2021/12/24 01:08:48;;;;;;;58.03;27.83;;;;;;;8.83;100.00;100222.38;5038059;28;20037;-48
2021/12/24 01:11:13;;;;;;;51.60;25.33;;;;;;;9.14;100.00;100264.13;5072594;28;20047;-50
2021/12/24 01:13:40;;;;;;;55.20;27.00;;;;;;;8.83;100.00;100204.88;5072559;28;20064;-48
2021/12/24 01:16:16;;;;;;;56.92;26.48;;;;;;;9.14;100.00;100262.38;5054606;28;20123;-50
2021/12/24 01:19:00;;;;;;;52.78;25.10;;;;;;;8.91;100.00;100222.97;5072476;28;20059;-52
2021/12/24 01:24:04;;;;;;;49.97;24.10;;;;;;;9.17;100.00;100258.78;5072342;28;20040;-49
2021/12/24 01:44:58;;;;;;;36.30;19.50;;;;;;;9.18;100.00;100260.50;5072035;28;20094;-50
2021/12/24 01:47:23;;;;;;;45.10;20.42;;;;;;;8.86;100.00;100214.41;5054077;28;20037;-47
2021/12/24 01:49:49;;;;;;;46.13;20.70;;;;;;;9.20;100.00;100263.91;5054107;28;20098;-49
2021/12/24 01:52:15;;;;;;;41.80;19.48;;;;;;;8.87;100.00;100214.31;5072133;28;20135;-50
2021/12/24 01:54:43;;;;;;;47.88;18.98;;;;;;;8.86;100.00;100209.16;5072083;28;20052;-48
2021/12/24 01:57:11;;;;;;;40.63;18.40;;;;;;;9.13;100.00;100252.81;5072054;28;20036;-49
2021/12/24 01:59:36;;;;;;;52.45;19.50;;;;;;;9.04;100.00;100243.50;5072211;28;20472;-47
2021/12/24 02:02:01;;;;;;;37.58;18.02;;;;;;;9.10;100.00;100258.16;5054006;28;20033;-48
2021/12/24 02:04:28;;;;;;;32.35;16.77;;;;;;;9.11;100.00;100264.28;5071785;28;20128;-48
2021/12/24 02:06:54;;;;;;;28.45;15.00;;;;;;;8.92;100.00;100237.81;5072110;28;20296;-46
2021/12/24 02:09:19;;;;;;;35.35;16.40;;;;;;;9.03;100.00;100265.38;5056025;28;20123;-51
2021/12/24 02:11:45;;;;;;;39.65;16.38;;;;;;;9.03;100.00;100265.38;5075729;28;20036;-47
2021/12/24 02:14:15;;;;;;;29.13;15.32;;;;;;;8.69;100.00;100203.63;5075641;28;20059;-49
2021/12/24 02:30:34;;;;;;;31.67;17.73;;;;;;;8.83;100.00;100219.75;5060447;28;20043;-47
2021/12/24 02:33:01;;;;;;;41.13;18.90;;;;;;;9.00;100.00;100264.63;5057351;28;20024;-48
2021/12/24 02:35:26;;;;;;;39.55;18.67;;;;;;;8.74;100.00;100202.56;5075141;28;20492;-48
2021/12/24 02:37:52;;;;;;;32.50;17.33;;;;;;;8.83;100.00;100231.13;5075267;28;20033;-48
2021/12/24 02:40:18;;;;;;;36.13;16.02;;;;;;;9.13;100.00;100268.56;5075284;28;20392;-51
2021/12/24 02:42:49;;;;;;;34.15;15.98;;;;;;;9.14;100.00;100282.53;5057344;28;20026;-48
2021/12/24 02:45:15;;;;;;;31.77;16.58;;;;;;;9.12;100.00;100279.97;5075093;28;20036;-49
2021/12/24 02:47:55;;;;;;;38.15;16.85;;;;;;;9.12;100.00;100253.72;5057079;28;20498;-46
2021/12/24 02:55:34;;;;;;;33.58;13.93;;;;;;;8.77;100.00;100193.72;5075025;28;20077;-47
2021/12/24 02:57:59;;;;;;;35.97;15.00;;;;;;;9.12;100.00;100253.72;5074722;28;20036;-45
2021/12/24 03:00:27;;;;;;;29.98;14.70;;;;;;;8.69;100.00;100186.13;5074561;28;20044;-50
2021/12/24 03:02:53;;;;;;;29.83;14.82;;;;;;;8.77;100.00;100196.34;5074896;28;20055;-49
2021/12/24 03:05:21;;;;;;;34.42;15.38;;;;;;;9.09;100.00;100253.81;5056936;28;20407;-46
2021/12/24 03:07:46;;;;;;;26.88;15.07;;;;;;;8.75;100.00;100193.78;5074621;28;20468;-46
2021/12/24 03:10:15;;;;;;;35.33;15.50;;;;;;;9.10;100.00;100281.78;5056813;28;20033;-49
2021/12/24 03:12:45;;;;;;;30.67;14.50;;;;;;;9.13;100.00;100265.94;5074554;28;20036;-48
2021/12/24 03:15:15;;;;;;;29.98;14.00;;;;;;;9.11;100.00;100261.66;5074445;28;20032;-48
2021/12/24 03:17:47;;;;;;;26.52;14.35;;;;;;;8.74;100.00;100189.44;5056670;28;20543;-46
2021/12/24 03:20:12;;;;;;;29.77;13.15;;;;;;;9.10;100.00;100262.56;5074106;28;20111;-47
2021/12/24 03:23:03;;;;;;;32.40;14.13;;;;;;;8.73;100.00;100194.72;5056573;28;20083;-48
2021/12/24 03:25:28;;;;;;;37.13;13.18;;;;;;;9.04;100.00;100255.75;5074331;28;20066;-48
2021/12/24 03:27:54;;;;;;;30.25;13.13;;;;;;;8.72;100.00;100199.16;5056562;28;20056;-48
2021/12/24 03:30:19;;;;;;;32.85;13.50;;;;;;;9.00;100.00;100255.00;5074419;28;20039;-47
2021/12/24 03:32:44;;;;;;;33.22;12.75;;;;;;;9.03;100.00;100261.91;5074185;28;20053;-48
2021/12/24 03:35:10;;;;;;;35.65;12.63;;;;;;;9.07;100.00;100265.28;5074156;28;20032;-49
2021/12/24 03:37:35;;;;;;;33.28;13.05;;;;;;;8.98;100.00;100253.34;5074135;28;20039;-48
2021/12/24 03:40:01;;;;;;;36.28;11.85;;;;;;;8.71;100.00;100193.94;5073971;28;20037;-47
2021/12/24 03:42:26;;;;;;;31.92;12.13;;;;;;;9.05;100.00;100253.06;5056268;28;20108;-47
2021/12/24 03:45:05;;;;;;;24.70;11.35;;;;;;;9.03;100.00;100254.03;5039577;28;20086;-47
2021/12/24 03:47:36;;;;;;;31.85;12.30;;;;;;;8.98;100.00;100254.19;5073750;28;20028;-46
2021/12/24 03:50:08;;;;;;;35.20;11.85;;;;;;;8.64;100.00;100203.78;5073878;28;20195;-48
2021/12/24 03:55:17;;;;;;;28.13;10.30;;;;;;;8.96;100.00;100247.28;5058666;28;20450;-52
2021/12/24 03:57:42;;;;;;;24.73;9.90;;;;;;;8.59;100.00;100187.34;5055891;28;20036;-47
2021/12/24 04:00:27;;;;;;;26.70;11.85;;;;;;;9.01;100.00;100258.47;5073628;28;20032;-48
2021/12/24 04:02:53;;;;;;;22.05;9.63;;;;;;;8.92;100.00;100246.53;5073418;28;20496;-49
2021/12/24 04:05:18;;;;;;;32.25;11.20;;;;;;;8.97;100.00;100254.25;5073596;28;20037;-50
2021/12/24 04:07:44;;;;;;;25.90;10.90;;;;;;;8.62;100.00;100191.63;5073627;28;20040;-46
2021/12/24 04:10:24;;;;;;;28.90;10.55;;;;;;;8.93;100.00;100265.78;5073467;28;20047;-50
2021/12/24 04:12:50;;;;;;;33.88;10.38;;;;;;;8.59;100.00;100213.59;5057495;28;20029;-48
2021/12/24 04:15:15;;;;;;;23.85;9.75;;;;;;;8.49;100.00;100191.22;5073194;28;20439;-48
2021/12/24 04:17:42;;;;;;;32.60;10.02;;;;;;;8.84;100.00;100266.09;5073093;28;20119;-48
2021/12/24 04:25:27;;;;;;;37.53;9.05;;;;;;;8.53;100.00;100211.16;5073177;28;20055;-50
2021/12/24 04:27:56;;;;;;;26.35;8.52;;;;;;;8.46;100.00;100212.31;5055233;28;20032;-45
2021/12/24 04:30:26;;;;;;;34.25;9.38;;;;;;;8.73;100.00;100258.56;5073107;28;20615;-50
2021/12/24 04:33:08;;;;;;;28.42;8.00;;;;;;;8.74;100.00;100252.41;5072555;28;20032;-47
2021/12/24 04:35:46;;;;;;;;;;;;;;;8.86;100.00;100259.88;5058020;28;20036;-46
2021/12/24 04:51:48;;;;;;;27.33;8.07;;;;;;;8.63;100.00;100259.81;5072554;28;20090;-48
2021/12/24 05:05:21;;;;;;;33.03;7.63;;;;;;;8.24;100.00;100192.88;5072436;28;20043;-51
2021/12/24 05:10:15;;;;;;;32.55;7.93;;;;;;;8.51;100.00;100260.22;5055082;28;20044;-52
2021/12/24 05:12:40;;;;;;;31.52;8.07;;;;;;;8.11;100.00;100196.84;5072603;28;20035;-50
2021/12/24 05:15:09;;;;;;;27.88;8.40;;;;;;;8.41;100.00;100264.88;5072530;28;20033;-48
2021/12/24 05:17:52;;;;;;;27.63;7.18;;;;;;;8.25;100.00;100242.66;5055018;28;20036;-49
2021/12/24 05:23:02;;;;;;;24.38;7.13;;;;;;;8.13;100.00;100211.59;5072228;28;20055;-52
2021/12/24 05:25:27;;;;;;;33.78;8.00;;;;;;;8.37;100.00;100267.69;5072350;28;20464;-50
2021/12/24 05:27:55;;;;;;;30.70;7.70;;;;;;;8.29;100.00;100278.38;5054484;28;20042;-48
2021/12/24 05:30:22;;;;;;;35.83;8.35;;;;;;;8.24;100.00;100279.41;5054634;28;20054;-48
2021/12/24 05:32:47;;;;;;;17.95;7.05;;;;;;;7.92;100.00;100243.72;5054582;28;20034;-48
2021/12/24 05:35:12;;;;;;;33.95;7.82;;;;;;;7.77;100.00;100208.38;5054462;28;20033;-49
2021/12/24 05:37:37;;;;;;;38.90;8.98;;;;;;;7.88;100.00;100244.75;5072448;28;20434;-51
2021/12/24 05:40:04;;;;;;;38.22;8.80;;;;;;;7.98;100.00;100269.75;5072173;28;20522;-52
2021/12/24 05:42:31;;;;;;;27.63;7.20;;;;;;;7.91;100.00;100261.19;5054793;28;20102;-49
2021/12/24 05:45:03;;;;;;;38.40;8.60;;;;;;;7.91;100.00;100278.69;5058143;28;20392;-50
2021/12/24 05:47:29;;;;;;;34.08;8.93;;;;;;;7.64;100.00;100228.00;5076355;28;20074;-52
2021/12/24 05:49:54;;;;;;;37.85;8.73;;;;;;;7.69;100.00;100233.09;5058366;28;20032;-47
2021/12/24 05:52:20;;;;;;;41.70;8.75;;;;;;;7.62;100.00;100226.31;5075911;28;20527;-49
2021/12/24 05:54:45;;;;;;;31.77;8.23;;;;;;;8.03;100.00;100277.44;5076118;28;20089;-48
2021/12/24 05:57:10;;;;;;;39.17;8.35;;;;;;;8.07;100.00;100286.94;5076042;28;20036;-48
2021/12/24 05:59:36;;;;;;;32.67;9.45;;;;;;;8.08;100.00;100278.19;5075950;28;20029;-49
2021/12/24 06:02:01;;;;;;;39.83;9.13;;;;;;;7.76;100.00;100224.97;5058031;28;20170;-49
2021/12/24 06:04:26;;;;;;;34.58;9.00;;;;;;;8.02;100.00;100278.38;5057898;28;20052;-47
2021/12/24 06:06:52;;;;;;;32.08;9.15;;;;;;;7.74;100.00;100226.81;5057954;28;20086;-48
2021/12/24 06:09:17;;;;;;;37.67;9.35;;;;;;;7.72;100.00;100223.38;5075668;28;20105;-47
2021/12/24 06:11:42;;;;;;;30.95;8.57;;;;;;;8.05;100.00;100289.63;5075715;28;20033;-47
2021/12/24 06:14:11;;;;;;;31.30;9.88;;;;;;;7.68;100.00;100224.38;5075612;28;20037;-52
2021/12/24 06:16:37;;;;;;;39.78;9.13;;;;;;;7.96;100.00;100274.19;5058522;28;20032;-48
2021/12/24 06:19:03;;;;;;;30.17;8.25;;;;;;;7.99;100.00;100261.00;5075643;28;20082;-49
2021/12/24 06:21:29;;;;;;;33.20;9.48;;;;;;;8.00;100.00;100267.94;5075315;28;20404;-51
2021/12/24 06:23:56;;;;;;;42.05;8.75;;;;;;;8.00;100.00;100281.03;5057495;28;20093;-48
2021/12/24 06:26:21;;;;;;;30.00;8.20;;;;;;;8.00;100.00;100282.81;5075526;28;20036;-50
2021/12/24 06:28:47;;;;;;;32.90;9.02;;;;;;;7.68;100.00;100240.09;5075211;28;20039;-49
2021/12/24 06:31:12;;;;;;;36.20;8.30;;;;;;;7.96;100.00;100281.19;5075411;28;20064;-50
2021/12/24 06:33:38;;;;;;;36.88;9.75;;;;;;;7.98;100.00;100282.84;5057426;28;20212;-46
2021/12/24 06:36:04;;;;;;;34.47;9.38;;;;;;;7.98;100.00;100277.59;5057460;28;20111;-46
2021/12/24 06:38:29;;;;;;;25.55;8.02;;;;;;;7.92;100.00;100269.94;5057228;28;20554;-52
2021/12/24 06:40:55;;;;;;;27.98;8.63;;;;;;;7.56;100.00;100208.19;5075147;28;20025;-47
2021/12/24 06:43:20;;;;;;;37.00;8.20;;;;;;;7.65;100.00;100224.47;5074926;28;20123;-51
2021/12/24 06:45:47;;;;;;;35.97;7.78;;;;;;;7.92;100.00;100275.16;5075351;28;20034;-48
2021/12/24 06:48:13;;;;;;;40.05;8.55;;;;;;;7.35;100.00;100176.47;5057642;28;20040;-50
2021/12/24 06:50:38;;;;;;;37.15;7.97;;;;;;;7.62;100.00;100221.06;5075181;28;20039;-52
2021/12/24 06:53:04;;;;;;;37.33;8.20;;;;;;;7.58;100.00;100222.09;5074888;28;20028;-50
2021/12/24 06:55:29;;;;;;;36.10;8.35;;;;;;;7.94;100.00;100274.22;5074305;28;20111;-51
2021/12/24 06:57:55;;;;;;;40.03;8.02;;;;;;;7.97;100.00;100288.97;5057041;28;20044;-53
2021/12/24 07:00:22;;;;;;;30.48;7.70;;;;;;;7.67;100.00;100220.06;5075051;28;20432;-49
2021/12/24 07:02:48;;;;;;;35.08;9.18;;;;;;;7.70;100.00;100222.59;5074691;28;20078;-52
2021/12/24 07:05:14;;;;;;;36.88;7.80;;;;;;;8.08;100.00;100283.44;5074624;28;20036;-49
2021/12/24 07:07:40;;;;;;;28.73;7.70;;;;;;;7.67;100.00;100211.34;5074624;28;20082;-48
2021/12/24 07:10:05;;;;;;;30.33;7.35;;;;;;;7.85;100.00;100243.03;5074466;28;20020;-48
2021/12/24 07:12:31;;;;;;;34.25;8.45;;;;;;;8.04;100.00;100280.03;5056631;28;20364;-49
2021/12/24 07:14:56;;;;;;;33.42;7.68;;;;;;;7.94;100.00;100260.25;5056894;28;20107;-50
2021/12/24 07:17:22;;;;;;;42.80;8.38;;;;;;;8.03;100.00;100280.94;5074583;28;20033;-51
2021/12/24 07:19:47;;;;;;;34.50;6.82;;;;;;;8.00;100.00;100278.41;5074605;28;20041;-48
2021/12/24 07:22:13;;;;;;;29.80;7.00;;;;;;;7.98;100.00;100275.00;5074178;28;20111;-48
2021/12/24 07:24:39;;;;;;;33.22;6.90;;;;;;;7.99;100.00;100279.34;5074294;28;20036;-51
2021/12/24 07:27:04;;;;;;;31.90;6.75;;;;;;;7.92;100.00;100259.44;5056264;28;20119;-50
2021/12/24 07:29:30;;;;;;;26.67;6.95;;;;;;;7.95;100.00;100277.69;5074365;28;20464;-47
2021/12/24 07:31:57;;;;;;;40.92;6.82;;;;;;;7.83;100.00;100254.47;5074376;28;20032;-51
2021/12/24 07:34:22;;;;;;;29.67;6.55;;;;;;;7.88;100.00;100278.81;5056394;28;20048;-49
2021/12/24 07:36:47;;;;;;;30.58;5.72;;;;;;;7.56;100.00;100229.97;5073917;28;20472;-49
2021/12/24 07:39:13;;;;;;;29.98;6.80;;;;;;;7.82;100.00;100285.06;5073991;28;20104;-50
2021/12/24 07:41:38;;;;;;;35.00;6.38;;;;;;;7.45;100.00;100218.09;5073823;28;20432;-49
2021/12/24 07:44:04;;;;;;;25.60;6.32;;;;;;;7.74;100.00;100260.84;5056354;28;20033;-49
2021/12/24 07:46:40;;;;;;;31.10;6.15;;;;;;;7.60;100.00;100231.59;5074043;28;20552;-48
2021/12/24 07:49:18;;;;;;;37.30;5.70;;;;;;;7.86;100.00;100265.72;5074026;28;20051;-48
2021/12/24 07:54:22;;;;;;;26.92;4.97;;;;;;;7.88;100.00;100270.94;5057724;28;20404;-48
2021/12/24 07:56:47;;;;;;;39.13;5.95;;;;;;;7.79;100.00;100242.41;5073888;28;20032;-50
2021/12/24 07:59:14;;;;;;;32.22;6.28;;;;;;;7.89;100.00;100260.41;5073783;28;20039;-49
2021/12/24 08:01:40;;;;;;;32.58;6.30;;;;;;;7.63;100.00;100210.56;5056054;28;20037;-48
2021/12/24 08:04:06;;;;;;;22.50;5.60;;;;;;;7.87;100.00;100270.09;5055565;28;20044;-50
2021/12/24 08:06:32;;;;;;;29.35;5.95;;;;;;;7.51;100.00;100204.81;5072389;28;20032;-47
2021/12/24 08:08:57;;;;;;;32.05;5.82;;;;;;;7.79;100.00;100260.75;5073509;28;20041;-49
2021/12/24 08:11:22;;;;;;;32.80;5.68;;;;;;;7.55;100.00;100232.66;5055608;28;20040;-48
2021/12/24 08:13:48;;;;;;;32.05;5.35;;;;;;;7.45;100.00;100210.25;5073260;28;20044;-47
2021/12/24 08:16:14;;;;;;;40.55;7.00;;;;;;;7.41;100.00;100206.88;5072806;28;20029;-47
2021/12/24 08:18:43;;;;;;;30.00;5.25;;;;;;;7.82;100.00;100279.00;5055593;28;20068;-51
2021/12/24 08:21:08;;;;;;;40.40;5.90;;;;;;;7.85;100.00;100268.41;5072039;28;20464;-53
2021/12/24 08:23:33;;;;;;;41.47;6.07;;;;;;;7.96;100.00;100268.94;5073118;28;20036;-48
2021/12/24 08:25:59;;;;;;;36.10;5.43;;;;;;;8.03;100.00;100282.69;5038658;28;20406;-53
2021/12/24 08:28:26;;;;;;;30.88;4.95;;;;;;;8.08;100.00;100302.66;5073294;28;20524;-48
2021/12/24 08:30:51;;;;;;;30.42;5.28;;;;;;;8.17;100.00;100286.59;5055257;28;20032;-51
2021/12/24 08:33:17;;;;;;;31.77;5.38;;;;;;;8.08;100.00;100281.69;5073001;28;20395;-52
2021/12/24 08:35:43;;;;;;;34.25;5.70;;;;;;;8.07;100.00;100256.34;5072802;28;20036;-51
2021/12/24 08:38:08;;;;;;;39.53;5.18;;;;;;;8.26;100.00;100290.72;5055174;28;20037;-50
2021/12/24 08:40:34;;;;;;;26.08;5.13;;;;;;;8.33;100.00;100284.41;5054727;28;20039;-48
2021/12/24 08:43:00;;;;;;;35.47;5.20;;;;;;;8.39;100.00;100282.44;5054685;28;20043;-50
2021/12/24 08:45:26;;;;;;;21.17;4.05;;;;;;;8.44;100.00;100280.53;5055051;28;20032;-49
2021/12/24 08:47:51;;;;;;;36.30;5.10;;;;;;;8.46;100.00;100289.19;5054928;28;20039;-49
2021/12/24 08:50:17;;;;;;;23.58;4.78;;;;;;;8.17;100.00;100215.81;5054648;28;20032;-51
2021/12/24 08:52:44;;;;;;;37.70;5.65;;;;;;;8.61;100.00;100287.00;5072176;28;20135;-53
2021/12/24 08:55:11;;;;;;;35.08;5.78;;;;;;;8.60;100.00;100287.91;5072593;28;20040;-51
2021/12/24 08:57:38;;;;;;;24.33;5.15;;;;;;;8.32;100.00;100225.84;5054719;28;20063;-50
2021/12/24 09:00:05;;;;;;;28.90;5.38;;;;;;;8.68;100.00;100280.63;5054644;28;20062;-53
2021/12/24 09:02:31;;;;;;;24.27;5.07;;;;;;;8.72;100.00;100272.63;5054407;28;20487;-50
2021/12/24 09:04:56;;;;;;;27.23;5.60;;;;;;;8.33;100.00;100213.59;5072297;28;20033;-53
2021/12/24 09:07:21;;;;;;;24.92;4.72;;;;;;;8.36;100.00;100219.59;5072472;28;20037;-47
2021/12/24 09:09:47;;;;;;;28.73;5.10;;;;;;;8.77;100.00;100291.69;5072648;28;20037;-51
2021/12/24 09:12:12;;;;;;;27.75;5.15;;;;;;;8.82;100.00;100276.63;5054338;28;20435;-50
2021/12/24 09:14:38;;;;;;;31.67;5.07;;;;;;;8.58;100.00;100235.47;5072266;28;20032;-51
2021/12/24 09:17:04;;;;;;;25.23;5.05;;;;;;;8.93;100.00;100289.41;5072182;28;20108;-50
2021/12/24 09:19:31;;;;;;;31.48;5.13;;;;;;;8.68;100.00;100225.53;5072132;28;20039;-50
2021/12/24 09:21:59;;;;;;;23.70;5.10;;;;;;;8.99;100.00;100266.41;5072494;28;20024;-55
2021/12/24 09:24:33;;;;;;;27.30;4.50;;;;;;;9.00;100.00;100277.75;5054294;28;20028;-53
2021/12/24 09:26:59;;;;;;;25.52;4.85;;;;;;;9.02;100.00;100278.56;5054325;28;20049;-51
2021/12/24 09:29:26;;;;;;;22.42;5.32;;;;;;;8.94;100.00;100260.47;5071443;28;20541;-51
2021/12/24 09:31:52;;;;;;;26.42;5.03;;;;;;;9.00;100.00;100285.63;5072324;28;20029;-47
2021/12/24 09:34:18;;;;;;;32.00;5.65;;;;;;;8.96;100.00;100273.53;5037426;28;20131;-51
2021/12/24 09:36:44;;;;;;;27.65;5.50;;;;;;;9.00;100.00;100270.75;5054241;28;20071;-52
2021/12/24 09:39:10;;;;;;;25.50;6.10;;;;;;;8.96;100.00;100277.00;5054587;28;20406;-49
2021/12/24 09:41:35;;;;;;;31.27;5.43;;;;;;;8.54;100.00;100220.75;5054229;28;20116;-53
2021/12/24 09:44:02;;;;;;;24.70;5.13;;;;;;;8.87;100.00;100285.19;5071780;28;20078;-54
2021/12/24 09:46:29;;;;;;;23.02;6.57;;;;;;;8.47;100.00;100216.63;5038059;28;20068;-52
2021/12/24 09:48:55;;;;;;;27.00;6.45;;;;;;;8.51;100.00;100223.47;5054127;28;20056;-49
2021/12/24 09:51:24;;;;;;;32.10;6.03;;;;;;;8.78;100.00;100269.78;5072109;28;20025;-50
2021/12/24 09:53:50;;;;;;;25.35;5.75;;;;;;;8.83;100.00;100275.72;5054146;28;20040;-50
2021/12/24 09:56:15;;;;;;;29.00;6.10;;;;;;;8.21;100.00;100161.53;5053951;28;20166;-52
2021/12/24 09:58:40;;;;;;;22.75;5.72;;;;;;;8.83;100.00;100275.72;5054233;28;20032;-55
2021/12/24 10:01:06;;;;;;;26.00;6.43;;;;;;;8.86;100.00;100275.63;5071710;28;20520;-52
2021/12/24 10:03:34;;;;;;;25.10;6.40;;;;;;;8.83;100.00;100270.47;5071765;28;20032;-49
2021/12/24 10:06:00;;;;;;;23.63;5.88;;;;;;;8.90;100.00;100282.47;5054070;28;20032;-52
2021/12/24 10:08:26;;;;;;;29.73;6.60;;;;;;;8.75;100.00;100248.03;5072051;28;20027;-50
2021/12/24 10:11:00;;;;;;;26.83;6.03;;;;;;;8.55;100.00;100224.25;5071940;28;20039;-52
2021/12/24 10:13:38;;;;;;;23.42;5.70;;;;;;;8.79;100.00;100278.50;5071877;28;20032;-57
2021/12/24 10:16:06;;;;;;;28.52;5.82;;;;;;;8.84;100.00;100292.34;5071851;28;20060;-48
2021/12/24 10:18:42;;;;;;;22.05;5.43;;;;;;;8.84;100.00;100285.28;5072198;28;20418;-53
2021/12/24 10:21:09;;;;;;;28.48;5.90;;;;;;;8.84;100.00;100285.28;5071966;28;20024;-55
2021/12/24 10:23:47;;;;;;;31.75;6.70;;;;;;;8.55;100.00;100234.75;5071570;28;20032;-51
2021/12/24 10:26:17;;;;;;;29.15;5.72;;;;;;;8.86;100.00;100287.88;5071716;28;20387;-56
2021/12/24 10:28:53;;;;;;;30.05;6.38;;;;;;;8.72;100.00;100249.00;5071897;28;20045;-51
2021/12/24 10:31:21;;;;;;;25.20;6.30;;;;;;;9.02;100.00;100279.41;5075205;28;20028;-53
2021/12/24 10:34:05;;;;;;;26.83;6.25;;;;;;;9.04;100.00;100284.63;5040970;28;20119;-54
2021/12/24 10:36:30;;;;;;;25.33;5.88;;;;;;;8.93;100.00;100252.66;5075141;28;20509;-52
2021/12/24 10:38:55;;;;;;;24.05;6.07;;;;;;;9.05;100.00;100278.44;5040857;28;20067;-55
2021/12/24 10:41:21;;;;;;;28.90;5.93;;;;;;;8.96;100.00;100287.50;5075162;28;20082;-53
2021/12/24 10:43:46;;;;;;;28.67;6.00;;;;;;;8.95;100.00;100280.56;5075039;28;20106;-50
2021/12/24 10:46:14;;;;;;;20.92;5.35;;;;;;;8.91;100.00;100267.56;5057323;28;20044;-49
2021/12/24 10:48:49;;;;;;;24.17;5.93;;;;;;;8.93;100.00;100279.72;5074920;28;20055;-49
2021/12/24 10:51:42;;;;;;;26.42;5.68;;;;;;;8.67;100.00;100223.84;5056990;28;20033;-49
2021/12/24 10:54:06;;;;;;;23.30;6.95;;;;;;;9.03;100.00;100285.53;5075022;28;20061;-53
2021/12/24 10:56:32;;;;;;;28.95;6.47;;;;;;;9.01;100.00;100288.22;5075356;28;20043;-51
2021/12/24 10:58:57;;;;;;;22.67;5.50;;;;;;;9.00;100.00;100283.88;5057035;28;20028;-49
2021/12/24 11:01:22;;;;;;;24.00;5.88;;;;;;;9.02;100.00;100270.69;5074941;28;20530;-49
2021/12/24 11:03:49;;;;;;;28.58;5.82;;;;;;;9.04;100.00;100272.38;5056732;28;20391;-50
2021/12/24 11:06:15;;;;;;;20.95;5.45;;;;;;;8.90;100.00;100271.13;5074801;28;20119;-49
2021/12/24 11:08:43;;;;;;;23.55;5.72;;;;;;;8.68;100.00;100236.03;5074712;28;20038;-51
2021/12/24 11:11:11;;;;;;;25.58;5.88;;;;;;;8.74;100.00;100235.81;5074703;28;20460;-54
2021/12/24 11:13:43;;;;;;;22.63;6.07;;;;;;;8.84;100.00;100269.53;5056834;28;20116;-49
2021/12/24 11:16:10;;;;;;;26.00;6.10;;;;;;;8.88;100.00;100271.16;5074991;28;20039;-52
2021/12/24 11:18:44;;;;;;;26.85;5.80;;;;;;;8.54;100.00;100210.25;5056992;28;20036;-51
2021/12/24 11:21:12;;;;;;;29.60;6.50;;;;;;;8.89;100.00;100290.41;5074498;28;20029;-48
2021/12/24 11:23:40;;;;;;;24.75;6.28;;;;;;;8.88;100.00;100273.78;5056537;28;22097;-50
2021/12/24 11:26:15;;;;;;;31.45;6.32;;;;;;;8.97;100.00;100276.09;5074336;28;20033;-49
2021/12/24 11:28:41;;;;;;;26.50;6.28;;;;;;;8.95;100.00;100266.56;5074215;28;20123;-51
2021/12/24 11:31:14;;;;;;;31.50;6.43;;;;;;;9.07;100.00;100274.03;5039776;28;20078;-52
2021/12/24 11:33:42;;;;;;;22.40;5.90;;;;;;;8.95;100.00;100246.44;5056564;28;20475;-53
2021/12/24 11:36:10;;;;;;;32.95;5.88;;;;;;;8.88;100.00;100242.31;5056206;28;20085;-52
2021/12/24 11:38:47;;;;;;;30.92;7.28;;;;;;;8.69;100.00;100208.88;5071105;28;20024;-48
2021/12/24 11:41:15;;;;;;;26.52;5.55;;;;;;;8.63;100.00;100202.09;5054624;28;20107;-49
2021/12/24 11:43:48;;;;;;;20.55;5.00;;;;;;;8.85;100.00;100237.16;5056032;28;20036;-49
2021/12/24 11:46:16;;;;;;;28.20;5.82;;;;;;;8.85;100.00;100254.66;5073703;28;20108;-51
2021/12/24 11:48:42;;;;;;;28.02;6.93;;;;;;;8.90;100.00;100252.75;5073875;28;20033;-55
2021/12/24 11:51:29;;;;;;;24.63;5.40;;;;;;;8.53;100.00;100205.06;5055932;28;20032;-54
2021/12/24 11:54:01;;;;;;;19.73;5.20;;;;;;;8.86;100.00;100264.25;5055728;28;20049;-49
2021/12/24 11:56:26;;;;;;;26.33;5.88;;;;;;;8.88;100.00;100265.91;5056024;28;20029;-50
2021/12/24 11:58:57;;;;;;;31.73;6.10;;;;;;;8.86;100.00;100261.63;5073695;28;20521;-51
2021/12/24 12:01:25;;;;;;;;;;;;;;;8.93;100.00;100255.28;5074214;28;20499;-51
2021/12/24 12:03:54;;;;;;;31.77;5.70;;;;;;;8.63;100.00;100196.84;5055695;28;19912;-54
2021/12/24 12:06:23;;;;;;;28.33;6.82;;;;;;;9.01;100.00;100269.00;5073429;28;20116;-53
2021/12/24 12:08:53;;;;;;;27.17;6.70;;;;;;;9.02;100.00;100262.81;5073555;28;20020;-50
2021/12/24 12:11:20;;;;;;;29.03;5.97;;;;;;;8.99;100.00;100261.16;5055587;28;20035;-51
2021/12/24 12:14:04;;;;;;;27.70;6.03;;;;;;;8.99;100.00;100261.16;5073441;28;20279;-50
2021/12/24 12:16:29;;;;;;;25.80;6.60;;;;;;;8.97;100.00;100264.75;5073412;28;20027;-53
2021/12/24 12:20:00;;;;;;;22.95;5.28;;;;;;;8.95;100.00;100271.81;5073316;28;20032;-51
2021/12/24 12:25:01;;;;;;;30.60;6.25;;;;;;;9.03;100.00;100264.53;5072954;28;20037;-48
2021/12/24 12:27:28;;;;;;;25.55;5.45;;;;;;;9.07;100.00;100273.16;5073508;28;20031;-46
2021/12/24 12:29:53;;;;;;;24.98;5.40;;;;;;;9.14;100.00;100272.00;5073289;28;20450;-50
2021/12/24 12:32:18;;;;;;;21.42;5.82;;;;;;;9.20;100.00;100277.06;5073085;28;20056;-53
2021/12/24 12:34:44;;;;;;;25.25;5.57;;;;;;;8.82;100.00;100207.53;5072863;28;20472;-51
2021/12/24 12:37:43;;;;;;;22.02;5.60;;;;;;;8.87;100.00;100224.00;5072844;28;20105;-52
2021/12/24 12:40:17;;;;;;;20.40;5.15;;;;;;;9.06;100.00;100274.91;5055292;28;20021;-49
2021/12/24 12:42:49;;;;;;;23.30;5.95;;;;;;;9.06;100.00;100277.56;5073064;28;20039;-52
2021/12/24 12:45:15;;;;;;;24.58;6.32;;;;;;;9.08;100.00;100259.97;5072802;28;20033;-50
2021/12/24 12:47:53;;;;;;;25.10;5.60;;;;;;;9.05;100.00;100260.06;5054412;28;20079;-50
2021/12/24 12:50:19;;;;;;;22.27;4.63;;;;;;;9.12;100.00;100263.34;5072148;28;20032;-51
2021/12/24 12:52:45;;;;;;;26.67;5.65;;;;;;;9.08;100.00;100241.59;5053160;28;20058;-52
2021/12/24 12:55:32;;;;;;;21.83;5.97;;;;;;;8.97;100.00;100233.25;5054587;28;20044;-55
2021/12/24 12:58:20;;;;;;;25.27;6.07;;;;;;;9.12;100.00;100258.09;5072502;28;20107;-54
2021/12/24 13:01:05;;;;;;;30.40;5.63;;;;;;;9.04;100.00;100256.63;5072670;28;20124;-53